sensor_id;sensor_type;location;lat;lon;timestamp;P1;durP1;ratioP1;P2;durP2;ratioP2
21569;SDS011;57598;50.888;4.746;2023-05-29T00:02:00;34.38;;;32.38;;
21569;SDS011;57598;50.888;4.746;2023-05-29T00:04:27;34.63;;;32.63;;
21569;SDS011;57598;50.888;4.746;2023-05-29T00:06:54;36.53;;;34.40;;
21569;SDS011;57598;50.888;4.746;2023-05-29T00:09:21;36.78;;;34.22;;
21569;SDS011;57598;50.888;4.746;2023-05-29T00:11:48;37.38;;;35.10;;
21569;SDS011;57598;50.888;4.746;2023-05-29T00:14:17;40.08;;;37.15;;
21569;SDS011;57598;50.888;4.746;2023-05-29T00:16:46;40.10;;;37.22;;
21569;SDS011;57598;50.888;4.746;2023-05-29T00:19:14;38.05;;;35.85;;
21569;SDS011;57598;50.888;4.746;2023-05-29T00:21:42;39.00;;;36.70;;
21569;SDS011;57598;50.888;4.746;2023-05-29T00:24:09;38.80;;;36.42;;
21569;SDS011;57598;50.888;4.746;2023-05-29T00:26:36;38.75;;;36.45;;
21569;SDS011;57598;50.888;4.746;2023-05-29T00:29:03;40.72;;;38.08;;
21569;SDS011;57598;50.888;4.746;2023-05-29T00:31:30;41.70;;;38.60;;
21569;SDS011;57598;50.888;4.746;2023-05-29T00:33:58;40.75;;;38.20;;
21569;SDS011;57598;50.888;4.746;2023-05-29T00:36:25;45.50;;;41.50;;
21569;SDS011;57598;50.888;4.746;2023-05-29T00:38:53;41.58;;;38.97;;
21569;SDS011;57598;50.888;4.746;2023-05-29T00:41:20;43.22;;;39.67;;
21569;SDS011;57598;50.888;4.746;2023-05-29T00:43:47;42.42;;;39.83;;
21569;SDS011;57598;50.888;4.746;2023-05-29T00:46:14;43.08;;;40.38;;
21569;SDS011;57598;50.888;4.746;2023-05-29T00:48:42;41.97;;;39.28;;
21569;SDS011;57598;50.888;4.746;2023-05-29T00:51:11;43.80;;;40.90;;
21569;SDS011;57598;50.888;4.746;2023-05-29T00:53:40;43.83;;;40.93;;
21569;SDS011;57598;50.888;4.746;2023-05-29T00:56:08;42.75;;;39.85;;
21569;SDS011;57598;50.888;4.746;2023-05-29T00:58:36;43.40;;;40.50;;
21569;SDS011;57598;50.888;4.746;2023-05-29T01:11:20;46.88;;;42.72;;
21569;SDS011;57598;50.888;4.746;2023-05-29T01:13:55;48.65;;;45.05;;
21569;SDS011;57598;50.888;4.746;2023-05-29T01:16:29;45.63;;;42.23;;
21569;SDS011;57598;50.888;4.746;2023-05-29T01:19:05;46.63;;;42.85;;
21569;SDS011;57598;50.888;4.746;2023-05-29T01:21:45;47.60;;;43.88;;
21569;SDS011;57598;50.888;4.746;2023-05-29T01:24:25;45.13;;;41.83;;
21569;SDS011;57598;50.888;4.746;2023-05-29T01:27:00;45.42;;;42.03;;
21569;SDS011;57598;50.888;4.746;2023-05-29T01:29:29;46.17;;;42.67;;
21569;SDS011;57598;50.888;4.746;2023-05-29T01:32:00;48.67;;;44.88;;
21569;SDS011;57598;50.888;4.746;2023-05-29T01:34:28;46.55;;;42.95;;
21569;SDS011;57598;50.888;4.746;2023-05-29T01:36:55;48.00;;;44.10;;
21569;SDS011;57598;50.888;4.746;2023-05-29T01:39:23;46.75;;;43.05;;
21569;SDS011;57598;50.888;4.746;2023-05-29T01:41:50;46.65;;;42.95;;
21569;SDS011;57598;50.888;4.746;2023-05-29T01:44:20;46.72;;;43.03;;
21569;SDS011;57598;50.888;4.746;2023-05-29T01:46:48;47.08;;;43.45;;
21569;SDS011;57598;50.888;4.746;2023-05-29T01:49:16;46.20;;;42.60;;
21569;SDS011;57598;50.888;4.746;2023-05-29T01:51:43;50.25;;;46.05;;
21569;SDS011;57598;50.888;4.746;2023-05-29T01:54:10;49.00;;;44.85;;
21569;SDS011;57598;50.888;4.746;2023-05-29T01:56:37;46.75;;;43.08;;
21569;SDS011;57598;50.888;4.746;2023-05-29T01:59:05;48.20;;;44.10;;
21569;SDS011;57598;50.888;4.746;2023-05-29T02:01:34;50.58;;;45.88;;
21569;SDS011;57598;50.888;4.746;2023-05-29T02:04:01;48.25;;;42.72;;
21569;SDS011;57598;50.888;4.746;2023-05-29T02:06:28;46.85;;;42.95;;
21569;SDS011;57598;50.888;4.746;2023-05-29T02:08:56;48.17;;;44.17;;
21569;SDS011;57598;50.888;4.746;2023-05-29T02:11:23;46.88;;;43.08;;
21569;SDS011;57598;50.888;4.746;2023-05-29T02:13:51;49.05;;;45.10;;
21569;SDS011;57598;50.888;4.746;2023-05-29T02:16:19;46.90;;;43.10;;
21569;SDS011;57598;50.888;4.746;2023-05-29T02:18:47;47.30;;;43.50;;
21569;SDS011;57598;50.888;4.746;2023-05-29T02:21:14;48.28;;;44.17;;
21569;SDS011;57598;50.888;4.746;2023-05-29T02:23:41;45.75;;;42.13;;
21569;SDS011;57598;50.888;4.746;2023-05-29T02:26:09;46.53;;;42.80;;
21569;SDS011;57598;50.888;4.746;2023-05-29T02:28:38;46.45;;;42.75;;
21569;SDS011;57598;50.888;4.746;2023-05-29T02:31:05;45.83;;;42.22;;
21569;SDS011;57598;50.888;4.746;2023-05-29T02:33:32;50.85;;;46.20;;
21569;SDS011;57598;50.888;4.746;2023-05-29T02:36:00;46.13;;;42.38;;
21569;SDS011;57598;50.888;4.746;2023-05-29T02:38:27;48.90;;;44.45;;
21569;SDS011;57598;50.888;4.746;2023-05-29T02:40:54;49.80;;;45.55;;
21569;SDS011;57598;50.888;4.746;2023-05-29T02:43:21;45.28;;;41.67;;
21569;SDS011;57598;50.888;4.746;2023-05-29T02:45:49;50.00;;;45.72;;
21569;SDS011;57598;50.888;4.746;2023-05-29T02:48:16;48.20;;;43.75;;
21569;SDS011;57598;50.888;4.746;2023-05-29T02:50:43;47.22;;;43.28;;
21569;SDS011;57598;50.888;4.746;2023-05-29T02:53:12;47.75;;;43.38;;
21569;SDS011;57598;50.888;4.746;2023-05-29T02:55:39;50.00;;;45.90;;
21569;SDS011;57598;50.888;4.746;2023-05-29T02:58:07;49.15;;;44.85;;
21569;SDS011;57598;50.888;4.746;2023-05-29T03:00:36;47.90;;;42.95;;
21569;SDS011;57598;50.888;4.746;2023-05-29T03:03:03;46.78;;;42.83;;
21569;SDS011;57598;50.888;4.746;2023-05-29T03:05:30;47.28;;;43.45;;
21569;SDS011;57598;50.888;4.746;2023-05-29T03:07:57;46.67;;;43.00;;
21569;SDS011;57598;50.888;4.746;2023-05-29T03:10:26;46.47;;;42.88;;
21569;SDS011;57598;50.888;4.746;2023-05-29T03:12:52;49.20;;;44.67;;
21569;SDS011;57598;50.888;4.746;2023-05-29T03:15:20;46.95;;;43.25;;
21569;SDS011;57598;50.888;4.746;2023-05-29T03:17:47;47.40;;;42.47;;
21569;SDS011;57598;50.888;4.746;2023-05-29T03:20:14;49.42;;;44.30;;
21569;SDS011;57598;50.888;4.746;2023-05-29T03:22:41;46.05;;;42.25;;
21569;SDS011;57598;50.888;4.746;2023-05-29T03:25:08;46.88;;;43.17;;
21569;SDS011;57598;50.888;4.746;2023-05-29T03:27:37;46.92;;;43.22;;
21569;SDS011;57598;50.888;4.746;2023-05-29T03:30:05;46.72;;;42.92;;
21569;SDS011;57598;50.888;4.746;2023-05-29T03:32:32;47.42;;;43.15;;
21569;SDS011;57598;50.888;4.746;2023-05-29T03:34:59;46.83;;;42.95;;
21569;SDS011;57598;50.888;4.746;2023-05-29T03:37:27;47.15;;;43.50;;
21569;SDS011;57598;50.888;4.746;2023-05-29T03:39:54;45.05;;;41.55;;
21569;SDS011;57598;50.888;4.746;2023-05-29T03:42:21;43.17;;;39.88;;
21569;SDS011;57598;50.888;4.746;2023-05-29T03:44:50;43.00;;;39.50;;
21569;SDS011;57598;50.888;4.746;2023-05-29T03:47:17;43.80;;;40.50;;
21569;SDS011;57598;50.888;4.746;2023-05-29T03:49:43;44.20;;;40.80;;
21569;SDS011;57598;50.888;4.746;2023-05-29T03:52:10;43.05;;;39.85;;
21569;SDS011;57598;50.888;4.746;2023-05-29T03:54:38;43.10;;;39.90;;
21569;SDS011;57598;50.888;4.746;2023-05-29T03:57:05;41.75;;;38.75;;
21569;SDS011;57598;50.888;4.746;2023-05-29T03:59:32;43.10;;;40.00;;
21569;SDS011;57598;50.888;4.746;2023-05-29T04:02:00;46.10;;;42.35;;
21569;SDS011;57598;50.888;4.746;2023-05-29T04:04:27;43.17;;;40.17;;
21569;SDS011;57598;50.888;4.746;2023-05-29T04:06:55;41.63;;;38.72;;
21569;SDS011;57598;50.888;4.746;2023-05-29T04:09:22;46.80;;;43.05;;
21569;SDS011;57598;50.888;4.746;2023-05-29T04:11:49;43.83;;;40.53;;
21569;SDS011;57598;50.888;4.746;2023-05-29T04:14:17;46.28;;;42.33;;
21569;SDS011;57598;50.888;4.746;2023-05-29T04:16:44;43.35;;;39.50;;
21569;SDS011;57598;50.888;4.746;2023-05-29T04:19:12;41.80;;;38.90;;
21569;SDS011;57598;50.888;4.746;2023-05-29T04:21:39;41.92;;;39.03;;
21569;SDS011;57598;50.888;4.746;2023-05-29T04:24:06;41.83;;;39.03;;
21569;SDS011;57598;50.888;4.746;2023-05-29T04:26:33;40.95;;;38.25;;
21569;SDS011;57598;50.888;4.746;2023-05-29T04:29:00;44.20;;;40.00;;
21569;SDS011;57598;50.888;4.746;2023-05-29T04:31:28;41.95;;;38.80;;
21569;SDS011;57598;50.888;4.746;2023-05-29T04:33:55;44.33;;;41.17;;
21569;SDS011;57598;50.888;4.746;2023-05-29T04:36:24;44.17;;;40.90;;
21569;SDS011;57598;50.888;4.746;2023-05-29T04:38:52;42.00;;;39.20;;
21569;SDS011;57598;50.888;4.746;2023-05-29T04:41:19;41.65;;;38.88;;
21569;SDS011;57598;50.888;4.746;2023-05-29T04:43:48;43.10;;;39.17;;
21569;SDS011;57598;50.888;4.746;2023-05-29T04:46:17;41.40;;;38.70;;
21569;SDS011;57598;50.888;4.746;2023-05-29T04:48:44;42.03;;;38.75;;
21569;SDS011;57598;50.888;4.746;2023-05-29T04:51:11;42.30;;;39.35;;
21569;SDS011;57598;50.888;4.746;2023-05-29T04:53:40;44.13;;;40.40;;
21569;SDS011;57598;50.888;4.746;2023-05-29T04:56:07;42.22;;;39.20;;
21569;SDS011;57598;50.888;4.746;2023-05-29T04:58:34;42.28;;;39.03;;
21569;SDS011;57598;50.888;4.746;2023-05-29T05:01:01;39.45;;;36.92;;
21569;SDS011;57598;50.888;4.746;2023-05-29T05:03:28;41.47;;;38.63;;
21569;SDS011;57598;50.888;4.746;2023-05-29T05:05:58;41.22;;;38.53;;
21569;SDS011;57598;50.888;4.746;2023-05-29T05:08:27;40.08;;;37.47;;
21569;SDS011;57598;50.888;4.746;2023-05-29T05:10:56;41.08;;;38.38;;
21569;SDS011;57598;50.888;4.746;2023-05-29T05:13:23;43.40;;;40.35;;
21569;SDS011;57598;50.888;4.746;2023-05-29T05:15:51;41.47;;;38.63;;
21569;SDS011;57598;50.888;4.746;2023-05-29T05:18:18;43.15;;;39.65;;
21569;SDS011;57598;50.888;4.746;2023-05-29T05:20:45;39.88;;;37.38;;
21569;SDS011;57598;50.888;4.746;2023-05-29T05:23:12;42.33;;;39.53;;
21569;SDS011;57598;50.888;4.746;2023-05-29T05:25:39;39.92;;;37.42;;
21569;SDS011;57598;50.888;4.746;2023-05-29T05:28:07;42.22;;;39.35;;
21569;SDS011;57598;50.888;4.746;2023-05-29T05:30:34;43.90;;;40.08;;
21569;SDS011;57598;50.888;4.746;2023-05-29T05:33:01;40.10;;;37.28;;
21569;SDS011;57598;50.888;4.746;2023-05-29T05:35:29;39.08;;;36.25;;
21569;SDS011;57598;50.888;4.746;2023-05-29T05:37:56;40.30;;;37.60;;
21569;SDS011;57598;50.888;4.746;2023-05-29T05:40:23;38.70;;;36.10;;
21569;SDS011;57598;50.888;4.746;2023-05-29T05:42:51;37.63;;;35.22;;
21569;SDS011;57598;50.888;4.746;2023-05-29T05:45:19;41.67;;;38.72;;
21569;SDS011;57598;50.888;4.746;2023-05-29T05:47:46;37.45;;;34.67;;
21569;SDS011;57598;50.888;4.746;2023-05-29T05:50:13;37.17;;;35.08;;
21569;SDS011;57598;50.888;4.746;2023-05-29T05:52:40;36.78;;;34.45;;
21569;SDS011;57598;50.888;4.746;2023-05-29T05:55:08;37.75;;;34.80;;
21569;SDS011;57598;50.888;4.746;2023-05-29T05:57:35;44.30;;;36.15;;
21569;SDS011;57598;50.888;4.746;2023-05-29T06:00:02;36.45;;;33.92;;
21569;SDS011;57598;50.888;4.746;2023-05-29T06:02:33;34.50;;;32.53;;
21569;SDS011;57598;50.888;4.746;2023-05-29T06:05:00;33.22;;;31.35;;
21569;SDS011;57598;50.888;4.746;2023-05-29T06:07:28;34.55;;;32.53;;
21569;SDS011;57598;50.888;4.746;2023-05-29T06:09:56;33.65;;;31.65;;
21569;SDS011;57598;50.888;4.746;2023-05-29T06:12:23;31.73;;;28.92;;
21569;SDS011;57598;50.888;4.746;2023-05-29T06:14:50;30.92;;;29.23;;
21569;SDS011;57598;50.888;4.746;2023-05-29T06:17:17;31.92;;;29.63;;
21569;SDS011;57598;50.888;4.746;2023-05-29T06:19:45;31.00;;;28.65;;
21569;SDS011;57598;50.888;4.746;2023-05-29T06:22:12;30.15;;;27.65;;
21569;SDS011;57598;50.888;4.746;2023-05-29T06:24:40;27.17;;;25.73;;
21569;SDS011;57598;50.888;4.746;2023-05-29T06:27:07;27.38;;;25.67;;
21569;SDS011;57598;50.888;4.746;2023-05-29T06:29:34;24.80;;;23.40;;
21569;SDS011;57598;50.888;4.746;2023-05-29T06:32:02;23.98;;;22.45;;
21569;SDS011;57598;50.888;4.746;2023-05-29T06:34:29;24.60;;;23.08;;
21569;SDS011;57598;50.888;4.746;2023-05-29T06:36:57;26.38;;;23.27;;
21569;SDS011;57598;50.888;4.746;2023-05-29T06:39:24;22.58;;;20.85;;
21569;SDS011;57598;50.888;4.746;2023-05-29T06:41:51;22.33;;;20.88;;
21569;SDS011;57598;50.888;4.746;2023-05-29T06:44:18;23.98;;;21.80;;
21569;SDS011;57598;50.888;4.746;2023-05-29T06:46:45;19.58;;;18.30;;
21569;SDS011;57598;50.888;4.746;2023-05-29T06:49:12;22.95;;;20.92;;
21569;SDS011;57598;50.888;4.746;2023-05-29T06:51:39;20.42;;;18.65;;
21569;SDS011;57598;50.888;4.746;2023-05-29T06:54:07;19.38;;;18.17;;
21569;SDS011;57598;50.888;4.746;2023-05-29T06:56:35;19.60;;;18.25;;
21569;SDS011;57598;50.888;4.746;2023-05-29T06:59:02;19.50;;;18.17;;
21569;SDS011;57598;50.888;4.746;2023-05-29T07:01:29;20.85;;;19.30;;
21569;SDS011;57598;50.888;4.746;2023-05-29T07:03:56;19.10;;;17.90;;
21569;SDS011;57598;50.888;4.746;2023-05-29T07:06:23;21.80;;;19.23;;
21569;SDS011;57598;50.888;4.746;2023-05-29T07:08:50;18.35;;;17.25;;
21569;SDS011;57598;50.888;4.746;2023-05-29T07:11:18;20.05;;;18.15;;
21569;SDS011;57598;50.888;4.746;2023-05-29T07:13:45;18.85;;;17.65;;
21569;SDS011;57598;50.888;4.746;2023-05-29T07:16:12;17.10;;;16.10;;
21569;SDS011;57598;50.888;4.746;2023-05-29T07:18:39;19.33;;;17.83;;
21569;SDS011;57598;50.888;4.746;2023-05-29T07:21:06;18.08;;;16.98;;
21569;SDS011;57598;50.888;4.746;2023-05-29T07:23:33;17.30;;;16.30;;
21569;SDS011;57598;50.888;4.746;2023-05-29T07:26:03;17.17;;;15.98;;
21569;SDS011;57598;50.888;4.746;2023-05-29T07:28:31;17.50;;;16.40;;
21569;SDS011;57598;50.888;4.746;2023-05-29T07:30:58;17.00;;;15.80;;
21569;SDS011;57598;50.888;4.746;2023-05-29T07:33:25;18.58;;;17.05;;
21569;SDS011;57598;50.888;4.746;2023-05-29T07:35:52;19.40;;;18.02;;
21569;SDS011;57598;50.888;4.746;2023-05-29T07:38:19;17.95;;;16.85;;
21569;SDS011;57598;50.888;4.746;2023-05-29T07:40:47;16.92;;;15.93;;
21569;SDS011;57598;50.888;4.746;2023-05-29T07:43:14;17.65;;;16.55;;
21569;SDS011;57598;50.888;4.746;2023-05-29T07:45:42;17.98;;;16.95;;
21569;SDS011;57598;50.888;4.746;2023-05-29T07:48:09;17.95;;;16.85;;
21569;SDS011;57598;50.888;4.746;2023-05-29T07:50:37;17.48;;;16.48;;
21569;SDS011;57598;50.888;4.746;2023-05-29T07:53:04;18.38;;;16.88;;
21569;SDS011;57598;50.888;4.746;2023-05-29T07:55:31;19.30;;;17.67;;
21569;SDS011;57598;50.888;4.746;2023-05-29T07:58:00;17.73;;;16.63;;
21569;SDS011;57598;50.888;4.746;2023-05-29T08:00:27;18.50;;;16.90;;
21569;SDS011;57598;50.888;4.746;2023-05-29T08:02:56;19.33;;;17.60;;
21569;SDS011;57598;50.888;4.746;2023-05-29T08:05:23;17.17;;;16.02;;
21569;SDS011;57598;50.888;4.746;2023-05-29T08:07:50;17.65;;;16.52;;
21569;SDS011;57598;50.888;4.746;2023-05-29T08:10:17;16.65;;;15.65;;
21569;SDS011;57598;50.888;4.746;2023-05-29T08:12:44;17.58;;;16.48;;
21569;SDS011;57598;50.888;4.746;2023-05-29T08:15:11;20.70;;;19.10;;
21569;SDS011;57598;50.888;4.746;2023-05-29T08:17:38;17.25;;;16.10;;
21569;SDS011;57598;50.888;4.746;2023-05-29T08:20:07;16.98;;;15.88;;
21569;SDS011;57598;50.888;4.746;2023-05-29T08:22:35;16.48;;;15.48;;
21569;SDS011;57598;50.888;4.746;2023-05-29T08:25:02;21.05;;;18.92;;
21569;SDS011;57598;50.888;4.746;2023-05-29T08:27:30;18.38;;;16.95;;
21569;SDS011;57598;50.888;4.746;2023-05-29T08:29:57;17.73;;;16.58;;
21569;SDS011;57598;50.888;4.746;2023-05-29T08:32:24;15.82;;;14.88;;
21569;SDS011;57598;50.888;4.746;2023-05-29T08:34:51;16.23;;;15.20;;
21569;SDS011;57598;50.888;4.746;2023-05-29T08:37:20;18.80;;;16.52;;
21569;SDS011;57598;50.888;4.746;2023-05-29T08:39:47;17.60;;;16.35;;
21569;SDS011;57598;50.888;4.746;2023-05-29T08:42:16;15.70;;;14.70;;
21569;SDS011;57598;50.888;4.746;2023-05-29T08:44:47;17.92;;;16.67;;
21569;SDS011;57598;50.888;4.746;2023-05-29T08:47:15;21.65;;;15.95;;
21569;SDS011;57598;50.888;4.746;2023-05-29T08:49:45;18.27;;;17.08;;
21569;SDS011;57598;50.888;4.746;2023-05-29T08:52:21;17.90;;;15.63;;
21569;SDS011;57598;50.888;4.746;2023-05-29T08:57:17;15.23;;;14.32;;
21569;SDS011;57598;50.888;4.746;2023-05-29T08:59:45;16.38;;;15.38;;
21569;SDS011;57598;50.888;4.746;2023-05-29T09:02:14;16.02;;;14.80;;
21569;SDS011;57598;50.888;4.746;2023-05-29T09:04:41;18.65;;;16.95;;
21569;SDS011;57598;50.888;4.746;2023-05-29T09:07:10;16.77;;;15.43;;
21569;SDS011;57598;50.888;4.746;2023-05-29T09:09:39;17.85;;;16.17;;
21569;SDS011;57598;50.888;4.746;2023-05-29T09:12:07;21.48;;;16.00;;
21569;SDS011;57598;50.888;4.746;2023-05-29T09:14:35;16.33;;;14.98;;
21569;SDS011;57598;50.888;4.746;2023-05-29T09:17:04;15.55;;;14.45;;
21569;SDS011;57598;50.888;4.746;2023-05-29T09:19:33;16.35;;;14.85;;
21569;SDS011;57598;50.888;4.746;2023-05-29T09:22:01;15.95;;;15.02;;
21569;SDS011;57598;50.888;4.746;2023-05-29T09:24:29;16.52;;;15.32;;
21569;SDS011;57598;50.888;4.746;2023-05-29T09:27:00;27.85;;;16.98;;
21569;SDS011;57598;50.888;4.746;2023-05-29T09:29:30;17.20;;;15.95;;
21569;SDS011;57598;50.888;4.746;2023-05-29T09:31:58;16.00;;;15.00;;
21569;SDS011;57598;50.888;4.746;2023-05-29T09:34:25;16.65;;;15.55;;
21569;SDS011;57598;50.888;4.746;2023-05-29T09:36:52;16.45;;;14.73;;
21569;SDS011;57598;50.888;4.746;2023-05-29T09:39:21;17.00;;;15.88;;
21569;SDS011;57598;50.888;4.746;2023-05-29T09:41:48;16.25;;;15.15;;
21569;SDS011;57598;50.888;4.746;2023-05-29T09:44:17;19.27;;;17.48;;
21569;SDS011;57598;50.888;4.746;2023-05-29T09:46:45;18.63;;;17.20;;
21569;SDS011;57598;50.888;4.746;2023-05-29T09:49:15;17.63;;;16.20;;
21569;SDS011;57598;50.888;4.746;2023-05-29T09:51:42;16.80;;;15.52;;
21569;SDS011;57598;50.888;4.746;2023-05-29T09:54:14;16.58;;;15.25;;
21569;SDS011;57598;50.888;4.746;2023-05-29T09:56:42;17.25;;;16.00;;
21569;SDS011;57598;50.888;4.746;2023-05-29T09:59:10;19.48;;;17.77;;
21569;SDS011;57598;50.888;4.746;2023-05-29T10:01:41;14.75;;;13.85;;
21569;SDS011;57598;50.888;4.746;2023-05-29T10:04:09;16.08;;;15.05;;
21569;SDS011;57598;50.888;4.746;2023-05-29T10:06:37;16.17;;;15.07;;
21569;SDS011;57598;50.888;4.746;2023-05-29T10:09:08;14.88;;;13.98;;
21569;SDS011;57598;50.888;4.746;2023-05-29T10:11:37;23.05;;;15.70;;
21569;SDS011;57598;50.888;4.746;2023-05-29T10:14:06;16.42;;;15.23;;
21569;SDS011;57598;50.888;4.746;2023-05-29T10:16:35;24.45;;;14.95;;
21569;SDS011;57598;50.888;4.746;2023-05-29T10:19:10;17.25;;;15.52;;
21569;SDS011;57598;50.888;4.746;2023-05-29T10:21:39;16.35;;;15.25;;
21569;SDS011;57598;50.888;4.746;2023-05-29T10:24:07;17.27;;;15.95;;
21569;SDS011;57598;50.888;4.746;2023-05-29T10:26:38;17.30;;;15.90;;
21569;SDS011;57598;50.888;4.746;2023-05-29T10:29:08;16.55;;;15.20;;
21569;SDS011;57598;50.888;4.746;2023-05-29T10:31:46;14.90;;;13.90;;
21569;SDS011;57598;50.888;4.746;2023-05-29T10:34:23;17.20;;;14.63;;
21569;SDS011;57598;50.888;4.746;2023-05-29T10:37:00;17.48;;;16.38;;
21569;SDS011;57598;50.888;4.746;2023-05-29T10:39:32;18.02;;;16.77;;
21569;SDS011;57598;50.888;4.746;2023-05-29T10:41:59;16.65;;;15.18;;
21569;SDS011;57598;50.888;4.746;2023-05-29T10:44:39;16.42;;;15.38;;
21569;SDS011;57598;50.888;4.746;2023-05-29T10:47:08;15.77;;;14.70;;
21569;SDS011;57598;50.888;4.746;2023-05-29T10:49:37;16.42;;;15.23;;
21569;SDS011;57598;50.888;4.746;2023-05-29T10:52:05;15.85;;;14.85;;
21569;SDS011;57598;50.888;4.746;2023-05-29T10:54:49;15.77;;;14.80;;
21569;SDS011;57598;50.888;4.746;2023-05-29T10:57:20;17.98;;;16.42;;
21569;SDS011;57598;50.888;4.746;2023-05-29T10:59:57;16.35;;;15.35;;
21569;SDS011;57598;50.888;4.746;2023-05-29T11:02:26;16.90;;;15.43;;
21569;SDS011;57598;50.888;4.746;2023-05-29T11:05:17;19.75;;;16.42;;
21569;SDS011;57598;50.888;4.746;2023-05-29T11:10:55;17.08;;;15.52;;
21569;SDS011;57598;50.888;4.746;2023-05-29T11:13:23;17.10;;;15.10;;
21569;SDS011;57598;50.888;4.746;2023-05-29T11:16:04;17.10;;;15.98;;
21569;SDS011;57598;50.888;4.746;2023-05-29T11:18:41;17.67;;;16.27;;
21569;SDS011;57598;50.888;4.746;2023-05-29T11:23:59;16.80;;;15.48;;
21569;SDS011;57598;50.888;4.746;2023-05-29T11:26:30;16.65;;;15.50;;
21569;SDS011;57598;50.888;4.746;2023-05-29T11:28:58;17.10;;;16.08;;
21569;SDS011;57598;50.888;4.746;2023-05-29T11:31:26;17.48;;;16.13;;
21569;SDS011;57598;50.888;4.746;2023-05-29T11:33:58;15.75;;;14.77;;
21569;SDS011;57598;50.888;4.746;2023-05-29T11:36:27;21.05;;;19.10;;
21569;SDS011;57598;50.888;4.746;2023-05-29T11:38:55;17.90;;;16.73;;
21569;SDS011;57598;50.888;4.746;2023-05-29T11:41:23;17.38;;;16.27;;
21569;SDS011;57598;50.888;4.746;2023-05-29T11:43:57;16.40;;;15.40;;
21569;SDS011;57598;50.888;4.746;2023-05-29T11:46:24;19.17;;;17.48;;
21569;SDS011;57598;50.888;4.746;2023-05-29T11:48:53;19.73;;;18.25;;
21569;SDS011;57598;50.888;4.746;2023-05-29T11:51:21;15.60;;;14.38;;
21569;SDS011;57598;50.888;4.746;2023-05-29T11:53:49;16.77;;;15.27;;
21569;SDS011;57598;50.888;4.746;2023-05-29T11:56:18;17.67;;;16.10;;
21569;SDS011;57598;50.888;4.746;2023-05-29T11:58:46;16.20;;;15.25;;
21569;SDS011;57598;50.888;4.746;2023-05-29T12:01:16;17.40;;;15.98;;
21569;SDS011;57598;50.888;4.746;2023-05-29T12:03:44;18.15;;;16.40;;
21569;SDS011;57598;50.888;4.746;2023-05-29T12:06:11;17.50;;;16.20;;
21569;SDS011;57598;50.888;4.746;2023-05-29T12:08:39;18.75;;;17.50;;
21569;SDS011;57598;50.888;4.746;2023-05-29T12:11:06;16.65;;;15.65;;
21569;SDS011;57598;50.888;4.746;2023-05-29T12:13:35;16.40;;;15.40;;
21569;SDS011;57598;50.888;4.746;2023-05-29T12:16:03;16.98;;;15.98;;
21569;SDS011;57598;50.888;4.746;2023-05-29T12:18:31;18.45;;;16.95;;
21569;SDS011;57598;50.888;4.746;2023-05-29T12:20:59;16.52;;;15.52;;
21569;SDS011;57598;50.888;4.746;2023-05-29T12:23:27;17.67;;;16.27;;
21569;SDS011;57598;50.888;4.746;2023-05-29T12:25:56;18.10;;;16.45;;
21569;SDS011;57598;50.888;4.746;2023-05-29T12:28:25;18.63;;;17.05;;
21569;SDS011;57598;50.888;4.746;2023-05-29T12:30:57;16.67;;;15.55;;
21569;SDS011;57598;50.888;4.746;2023-05-29T12:33:28;18.50;;;17.00;;
21569;SDS011;57598;50.888;4.746;2023-05-29T12:36:06;18.73;;;17.23;;
21569;SDS011;57598;50.888;4.746;2023-05-29T12:38:41;17.45;;;16.45;;
21569;SDS011;57598;50.888;4.746;2023-05-29T12:41:22;18.42;;;16.85;;
21569;SDS011;57598;50.888;4.746;2023-05-29T12:43:53;17.17;;;16.05;;
21569;SDS011;57598;50.888;4.746;2023-05-29T12:46:22;17.55;;;16.27;;
21569;SDS011;57598;50.888;4.746;2023-05-29T12:48:51;20.92;;;18.80;;
21569;SDS011;57598;50.888;4.746;2023-05-29T12:51:22;17.27;;;16.27;;
21569;SDS011;57598;50.888;4.746;2023-05-29T12:53:50;16.67;;;15.38;;
21569;SDS011;57598;50.888;4.746;2023-05-29T12:56:19;17.50;;;16.40;;
21569;SDS011;57598;50.888;4.746;2023-05-29T12:58:50;18.48;;;17.17;;
21569;SDS011;57598;50.888;4.746;2023-05-29T13:01:17;18.88;;;17.52;;
21569;SDS011;57598;50.888;4.746;2023-05-29T13:03:45;17.08;;;16.05;;
21569;SDS011;57598;50.888;4.746;2023-05-29T13:06:12;17.58;;;16.38;;
21569;SDS011;57598;50.888;4.746;2023-05-29T13:08:39;17.20;;;16.10;;
21569;SDS011;57598;50.888;4.746;2023-05-29T13:11:06;16.08;;;15.02;;
21569;SDS011;57598;50.888;4.746;2023-05-29T13:13:33;17.05;;;15.95;;
21569;SDS011;57598;50.888;4.746;2023-05-29T13:16:01;17.30;;;16.20;;
21569;SDS011;57598;50.888;4.746;2023-05-29T13:18:28;19.27;;;17.95;;
21569;SDS011;57598;50.888;4.746;2023-05-29T13:20:56;19.20;;;17.73;;
21569;SDS011;57598;50.888;4.746;2023-05-29T13:23:23;16.70;;;15.70;;
21569;SDS011;57598;50.888;4.746;2023-05-29T13:25:50;17.73;;;16.20;;
21569;SDS011;57598;50.888;4.746;2023-05-29T13:28:17;17.25;;;16.17;;
21569;SDS011;57598;50.888;4.746;2023-05-29T13:30:44;17.02;;;15.85;;
21569;SDS011;57598;50.888;4.746;2023-05-29T13:33:13;17.95;;;16.60;;
21569;SDS011;57598;50.888;4.746;2023-05-29T13:35:40;18.20;;;17.05;;
21569;SDS011;57598;50.888;4.746;2023-05-29T13:38:06;20.85;;;18.30;;
21569;SDS011;57598;50.888;4.746;2023-05-29T13:40:34;18.38;;;16.85;;
21569;SDS011;57598;50.888;4.746;2023-05-29T13:43:01;17.35;;;16.25;;
21569;SDS011;57598;50.888;4.746;2023-05-29T13:45:28;17.00;;;15.85;;
21569;SDS011;57598;50.888;4.746;2023-05-29T13:47:55;18.52;;;17.38;;
21569;SDS011;57598;50.888;4.746;2023-05-29T13:50:24;16.77;;;15.77;;
21569;SDS011;57598;50.888;4.746;2023-05-29T13:52:52;17.65;;;16.45;;
21569;SDS011;57598;50.888;4.746;2023-05-29T13:55:19;17.83;;;16.73;;
21569;SDS011;57598;50.888;4.746;2023-05-29T13:57:46;17.15;;;15.93;;
21569;SDS011;57598;50.888;4.746;2023-05-29T14:00:13;18.00;;;16.90;;
21569;SDS011;57598;50.888;4.746;2023-05-29T14:02:41;17.33;;;16.33;;
21569;SDS011;57598;50.888;4.746;2023-05-29T14:05:08;18.17;;;17.08;;
21569;SDS011;57598;50.888;4.746;2023-05-29T14:07:37;19.98;;;18.23;;
21569;SDS011;57598;50.888;4.746;2023-05-29T14:10:05;20.27;;;18.45;;
21569;SDS011;57598;50.888;4.746;2023-05-29T14:12:32;19.10;;;17.80;;
21569;SDS011;57598;50.888;4.746;2023-05-29T14:14:59;18.98;;;17.75;;
21569;SDS011;57598;50.888;4.746;2023-05-29T14:17:26;18.52;;;17.23;;
21569;SDS011;57598;50.888;4.746;2023-05-29T14:19:53;23.08;;;18.85;;
21569;SDS011;57598;50.888;4.746;2023-05-29T14:22:21;20.20;;;18.67;;
21569;SDS011;57598;50.888;4.746;2023-05-29T14:24:49;19.27;;;17.98;;
21569;SDS011;57598;50.888;4.746;2023-05-29T14:27:16;19.80;;;18.27;;
21569;SDS011;57598;50.888;4.746;2023-05-29T14:29:43;19.02;;;17.83;;
21569;SDS011;57598;50.888;4.746;2023-05-29T14:32:11;18.05;;;16.88;;
21569;SDS011;57598;50.888;4.746;2023-05-29T14:34:38;18.88;;;17.67;;
21569;SDS011;57598;50.888;4.746;2023-05-29T14:37:05;19.77;;;18.40;;
21569;SDS011;57598;50.888;4.746;2023-05-29T14:39:32;19.70;;;18.10;;
21569;SDS011;57598;50.888;4.746;2023-05-29T14:42:00;23.77;;;18.25;;
21569;SDS011;57598;50.888;4.746;2023-05-29T14:44:28;17.88;;;16.88;;
21569;SDS011;57598;50.888;4.746;2023-05-29T14:46:54;18.23;;;17.15;;